createdAt,value
2023-02-19T00:00:21.641Z,10.00
2023-02-19T00:02:52.480Z,13.05
2023-02-19T00:05:20.000Z,9.02
2023-02-19T00:07:47.565Z,13.10
2023-02-19T00:10:15.128Z,11.02
2023-02-19T00:12:42.671Z,17.80
2023-02-19T00:15:10.445Z,10.43
2023-02-19T00:17:38.004Z,10.43
2023-02-19T00:20:07.396Z,11.95
2023-02-19T00:22:34.931Z,12.55
2023-02-19T00:25:02.710Z,12.88
2023-02-19T00:27:30.369Z,14.45
2023-02-19T00:29:58.520Z,12.65
2023-02-19T00:32:26.202Z,14.10
2023-02-19T00:34:53.859Z,11.80
2023-02-19T00:37:22.857Z,9.77
2023-02-19T00:39:50.681Z,13.25
2023-02-19T00:42:18.182Z,11.05
2023-02-19T00:44:45.670Z,12.65
2023-02-19T00:47:13.256Z,13.18
2023-02-19T00:49:40.870Z,11.50
2023-02-19T00:52:08.439Z,10.30
2023-02-19T00:54:37.303Z,12.25
2023-02-19T00:57:06.390Z,12.98
2023-02-19T00:59:34.004Z,12.57
2023-02-19T01:02:01.575Z,11.05
2023-02-19T01:04:29.189Z,18.08
2023-02-19T01:06:56.801Z,13.85
2023-02-19T01:09:24.329Z,14.20
2023-02-19T01:11:53.218Z,15.93
2023-02-19T01:14:20.791Z,13.07
2023-02-19T01:16:48.421Z,14.30
2023-02-19T01:19:15.935Z,11.25
2023-02-19T01:21:43.535Z,16.08
2023-02-19T01:24:11.170Z,12.65
2023-02-19T01:26:38.744Z,12.88
2023-02-19T01:29:07.685Z,17.92
2023-02-19T01:31:35.364Z,13.18
2023-02-19T01:34:04.767Z,14.50
2023-02-19T01:36:33.809Z,12.85
2023-02-19T01:39:06.717Z,11.45
2023-02-19T01:41:36.373Z,12.90
2023-02-19T01:44:05.328Z,14.02
2023-02-19T01:46:35.211Z,16.63
2023-02-19T01:49:05.657Z,15.57
2023-02-19T01:51:34.752Z,14.13
2023-02-19T01:54:04.440Z,14.20
2023-02-19T01:56:34.373Z,15.50
2023-02-19T01:59:02.211Z,11.75
2023-02-19T02:01:29.786Z,14.80
2023-02-19T02:03:59.042Z,13.15
2023-02-19T02:06:29.070Z,16.33
2023-02-19T02:09:15.250Z,18.67
2023-02-19T02:11:45.738Z,15.77
2023-02-19T02:14:13.428Z,16.58
2023-02-19T02:16:44.244Z,16.63
2023-02-19T02:19:32.350Z,14.60
2023-02-19T02:22:06.579Z,13.52
2023-02-19T02:24:54.131Z,11.50
2023-02-19T02:27:28.572Z,11.32
2023-02-19T02:30:16.879Z,9.77
2023-02-19T02:32:53.344Z,10.45
2023-02-19T02:35:22.458Z,8.13
2023-02-19T02:37:51.052Z,10.38
2023-02-19T02:40:19.117Z,10.18
2023-02-19T02:42:46.924Z,8.85
2023-02-19T02:45:38.094Z,9.73
2023-02-19T02:48:13.492Z,10.55
2023-02-19T02:50:43.260Z,7.53
2023-02-19T02:53:31.752Z,7.40
2023-02-19T02:56:00.485Z,7.18
2023-02-19T02:58:29.120Z,7.30
2023-02-19T03:01:15.980Z,10.00
2023-02-19T03:03:47.118Z,5.47
2023-02-19T03:06:16.583Z,5.40
2023-02-19T03:08:46.970Z,7.32
2023-02-19T03:11:32.349Z,5.65
2023-02-19T03:14:20.544Z,5.18
2023-02-19T03:17:06.827Z,5.25
2023-02-19T03:19:37.396Z,6.28
2023-02-19T03:22:10.853Z,4.90
2023-02-19T03:24:57.834Z,6.32
2023-02-19T03:27:26.594Z,6.00
2023-02-19T03:29:55.234Z,6.78
2023-02-19T03:32:24.951Z,4.65
2023-02-19T03:34:56.222Z,4.88
2023-02-19T03:37:27.961Z,4.70
2023-02-19T03:39:55.864Z,5.32
2023-02-19T03:42:28.754Z,5.35
2023-02-19T03:45:01.994Z,5.65
2023-02-19T03:47:31.206Z,4.32
2023-02-19T03:50:03.183Z,4.03
2023-02-19T03:52:36.081Z,4.28
2023-02-19T03:55:07.158Z,3.85
2023-02-19T03:57:38.349Z,6.30
2023-02-19T04:00:09.992Z,6.70
2023-02-19T04:02:42.499Z,7.55
2023-02-19T04:05:14.252Z,6.25
2023-02-19T04:07:43.888Z,6.68
2023-02-19T04:10:11.452Z,5.50
2023-02-19T04:12:40.207Z,11.75
2023-02-19T04:15:10.166Z,5.10
2023-02-19T04:17:39.798Z,4.60
2023-02-19T04:20:08.967Z,4.22
2023-02-19T04:22:38.383Z,6.72
2023-02-19T04:25:06.385Z,3.95
2023-02-19T04:27:36.702Z,5.00
2023-02-19T04:30:04.790Z,3.63
2023-02-19T04:32:32.376Z,6.32
2023-02-19T04:34:59.833Z,4.00
2023-02-19T04:37:27.405Z,4.63
2023-02-19T04:39:56.324Z,6.30
2023-02-19T04:42:23.948Z,3.70
2023-02-19T04:44:51.463Z,4.75
2023-02-19T04:47:18.952Z,3.40
2023-02-19T04:49:46.676Z,5.72
2023-02-19T04:52:14.187Z,3.72
2023-02-19T04:54:41.704Z,4.40
2023-02-19T04:57:10.618Z,3.58
2023-02-19T04:59:38.071Z,7.65
2023-02-19T05:02:05.730Z,3.60
2023-02-19T05:04:33.483Z,6.25
2023-02-19T05:07:01.034Z,5.50
2023-02-19T05:09:28.723Z,9.18
2023-02-19T05:11:56.253Z,3.47
2023-02-19T05:14:25.293Z,3.47
2023-02-19T05:16:52.839Z,2.90
2023-02-19T05:19:20.345Z,4.20
2023-02-19T05:21:47.820Z,3.15
2023-02-19T05:24:15.300Z,2.50
2023-02-19T05:26:45.123Z,2.40
2023-02-19T05:29:12.942Z,2.88
2023-02-19T05:31:41.898Z,1.40
2023-02-19T05:34:09.434Z,1.60
2023-02-19T05:36:37.876Z,1.02
2023-02-19T05:39:06.308Z,1.20
2023-02-19T05:41:33.847Z,1.65
2023-02-19T05:44:01.420Z,1.52
2023-02-19T05:46:30.592Z,1.15
2023-02-19T05:48:59.522Z,1.65
2023-02-19T05:51:27.793Z,2.38
2023-02-19T05:53:56.368Z,1.10
2023-02-19T05:56:33.710Z,1.40
2023-02-19T05:59:03.964Z,1.38
2023-02-19T06:01:31.873Z,1.20
2023-02-19T06:04:00.763Z,1.30
2023-02-19T06:06:28.419Z,0.90
2023-02-19T06:08:56.201Z,1.00
2023-02-19T06:11:23.721Z,1.38
2023-02-19T06:13:51.339Z,1.10
2023-02-19T06:16:18.972Z,1.00
2023-02-19T06:18:46.740Z,1.00
2023-02-19T06:21:18.672Z,0.90
2023-02-19T06:23:46.149Z,1.35
2023-02-19T06:26:15.088Z,1.63
2023-02-19T06:28:43.364Z,1.00
2023-02-19T06:31:11.679Z,1.10
2023-02-19T06:33:40.457Z,0.75
2023-02-19T06:36:11.614Z,1.33
2023-02-19T06:38:40.526Z,0.82
2023-02-19T06:41:09.403Z,1.00
2023-02-19T06:43:37.536Z,0.88
2023-02-19T06:46:06.543Z,1.55
2023-02-19T06:48:34.627Z,1.75
2023-02-19T06:51:04.113Z,1.00
2023-02-19T06:53:32.205Z,0.80
2023-02-19T06:56:01.978Z,0.90
2023-02-19T06:58:29.719Z,1.08
2023-02-19T07:00:57.419Z,1.30
2023-02-19T07:03:26.206Z,1.00
2023-02-19T07:05:54.380Z,1.00
2023-02-19T07:08:21.991Z,1.10
2023-02-19T07:10:55.023Z,0.93
2023-02-19T07:13:24.271Z,1.30
2023-02-19T07:15:52.504Z,1.00
2023-02-19T07:18:20.107Z,1.30
2023-02-19T07:20:48.449Z,0.93
2023-02-19T07:23:16.376Z,0.98
2023-02-19T07:25:44.115Z,1.00
2023-02-19T07:28:11.758Z,1.20
2023-02-19T07:30:41.894Z,1.40
2023-02-19T07:33:11.374Z,1.35
2023-02-19T07:35:39.288Z,1.30
2023-02-19T07:38:07.231Z,1.60
2023-02-19T07:40:35.460Z,1.40
2023-02-19T07:43:03.029Z,1.50
2023-02-19T07:45:31.905Z,1.70
2023-02-19T07:48:01.646Z,1.15
2023-02-19T07:50:29.252Z,1.60
2023-02-19T07:52:57.780Z,1.60
2023-02-19T07:55:25.274Z,1.50
2023-02-19T07:57:53.172Z,1.80
2023-02-19T08:00:21.125Z,1.73
2023-02-19T08:03:03.895Z,1.60
2023-02-19T08:05:34.108Z,1.50
2023-02-19T08:08:02.011Z,2.70
2023-02-19T08:10:46.891Z,1.63
2023-02-19T08:13:22.669Z,2.08
2023-02-19T08:15:52.079Z,2.20
2023-02-19T08:18:20.709Z,3.53
2023-02-19T08:20:49.625Z,2.78
2023-02-19T08:23:17.383Z,2.38
2023-02-19T08:25:45.229Z,4.55
2023-02-19T08:28:13.388Z,2.10
2023-02-19T08:30:44.496Z,3.05
2023-02-19T08:33:12.836Z,1.73
2023-02-19T08:35:40.393Z,2.10
2023-02-19T08:38:09.788Z,4.30
2023-02-19T08:40:38.178Z,2.85
2023-02-19T08:43:06.396Z,1.70
2023-02-19T08:45:33.920Z,1.95
2023-02-19T08:48:01.581Z,3.97
2023-02-19T08:50:29.502Z,3.20
2023-02-19T08:52:57.469Z,2.03
2023-02-19T08:55:26.764Z,1.70
2023-02-19T08:57:54.465Z,2.65
2023-02-19T09:00:22.814Z,2.00
2023-02-19T09:02:51.403Z,4.70
2023-02-19T09:05:19.068Z,1.80
2023-02-19T09:07:46.590Z,5.43
2023-02-19T09:10:14.717Z,1.80
2023-02-19T09:12:44.141Z,4.60
2023-02-19T09:15:11.718Z,1.70
2023-02-19T09:17:39.563Z,3.35
2023-02-19T09:20:07.321Z,1.70
2023-02-19T09:22:35.096Z,1.67
2023-02-19T09:25:02.634Z,2.65
2023-02-19T09:27:31.730Z,2.35
2023-02-19T09:30:00.769Z,3.10
2023-02-19T09:32:30.987Z,1.50
2023-02-19T09:34:58.567Z,2.88
2023-02-19T09:37:27.413Z,3.03
2023-02-19T09:39:55.451Z,1.80
2023-02-19T09:42:24.647Z,2.00
2023-02-19T09:44:53.359Z,1.75
2023-02-19T09:47:23.873Z,2.83
2023-02-19T09:49:52.282Z,2.10
2023-02-19T09:52:24.528Z,1.73
2023-02-19T09:54:57.533Z,2.65
2023-02-19T09:57:26.943Z,3.00
2023-02-19T09:59:59.084Z,3.38
2023-02-19T10:02:31.406Z,2.25
2023-02-19T10:04:59.885Z,1.63
2023-02-19T10:07:34.247Z,1.50
2023-02-19T10:10:03.637Z,2.53
2023-02-19T10:12:32.220Z,2.78
2023-02-19T10:15:02.583Z,4.97
2023-02-19T10:17:35.541Z,2.50
2023-02-19T10:20:04.702Z,1.70
2023-02-19T10:22:33.278Z,3.28
2023-02-19T10:25:01.345Z,2.38
2023-02-19T10:27:31.115Z,3.15
2023-02-19T10:29:59.426Z,2.42
2023-02-19T10:32:29.480Z,4.72
2023-02-19T10:35:10.187Z,1.95
2023-02-19T10:37:42.789Z,1.85
2023-02-19T10:40:13.876Z,2.67
2023-02-19T10:42:45.835Z,4.90
2023-02-19T10:45:18.133Z,2.78
2023-02-19T10:47:47.538Z,1.58
2023-02-19T10:50:21.650Z,3.60
2023-02-19T10:52:53.097Z,2.45
2023-02-19T10:55:26.694Z,8.30
2023-02-19T10:57:55.042Z,2.08
2023-02-19T11:00:26.693Z,2.70
2023-02-19T11:03:09.693Z,2.55
2023-02-19T11:05:39.296Z,3.20
2023-02-19T11:08:06.939Z,3.38
2023-02-19T11:10:37.338Z,1.77
2023-02-19T11:13:05.973Z,4.45
2023-02-19T11:15:34.623Z,3.60
2023-02-19T11:18:05.444Z,3.97
2023-02-19T11:20:33.282Z,1.70
2023-02-19T11:23:07.651Z,1.33
2023-02-19T11:25:35.409Z,3.08
2023-02-19T11:28:07.106Z,1.55
2023-02-19T11:30:36.823Z,2.75
2023-02-19T11:33:21.708Z,2.05
2023-02-19T11:35:50.496Z,1.27
2023-02-19T11:38:20.341Z,2.90
2023-02-19T11:40:52.365Z,1.10
2023-02-19T11:43:34.340Z,4.00
2023-02-19T11:46:04.481Z,3.33
2023-02-19T11:48:45.392Z,1.10
2023-02-19T11:51:33.004Z,3.97
2023-02-19T11:54:08.238Z,2.15
2023-02-19T11:56:37.267Z,2.78
2023-02-19T11:59:08.800Z,2.15
2023-02-19T12:01:44.507Z,1.58
2023-02-19T12:04:27.006Z,1.63
2023-02-19T12:06:58.120Z,2.28
2023-02-19T12:09:37.958Z,3.03
2023-02-19T12:12:16.980Z,4.80
2023-02-19T12:14:58.230Z,2.35
2023-02-19T12:17:40.530Z,1.42
2023-02-19T12:20:14.184Z,1.48
2023-02-19T12:22:45.825Z,3.40
2023-02-19T12:25:34.775Z,3.08
2023-02-19T12:28:09.352Z,1.50
2023-02-19T12:30:51.768Z,3.00
2023-02-19T12:33:37.092Z,3.10
2023-02-19T12:36:08.782Z,2.83
2023-02-19T12:38:40.749Z,2.13
2023-02-19T12:41:32.301Z,4.25
2023-02-19T12:44:02.902Z,1.48
2023-02-19T12:46:32.967Z,1.67
2023-02-19T12:49:02.780Z,1.58
2023-02-19T12:51:33.956Z,2.75
2023-02-19T12:54:03.914Z,2.10
2023-02-19T12:56:34.443Z,3.78
2023-02-19T12:59:05.483Z,2.72
2023-02-19T20:50:01.177Z,5.13
2023-02-19T20:52:28.662Z,6.60
2023-02-19T20:54:56.678Z,9.07
2023-02-19T20:57:24.655Z,5.15
2023-02-19T20:59:54.164Z,12.38
2023-02-19T21:02:23.108Z,6.03
2023-02-19T21:04:50.596Z,6.40
2023-02-19T21:07:19.876Z,5.00
2023-02-19T21:09:47.297Z,8.90
2023-02-19T21:12:14.884Z,9.00
2023-02-19T21:14:42.398Z,5.88
2023-02-19T21:17:09.959Z,6.28
2023-02-19T21:19:37.455Z,7.38
2023-02-19T21:22:04.938Z,6.70
2023-02-19T21:24:33.912Z,6.05
2023-02-19T21:27:02.618Z,5.88
2023-02-19T21:29:30.156Z,7.70
2023-02-19T21:31:58.172Z,10.23
2023-02-19T21:34:26.594Z,8.10
2023-02-19T21:36:54.348Z,8.32
2023-02-19T21:39:22.469Z,11.10
2023-02-19T21:41:52.590Z,5.97
2023-02-19T21:44:21.040Z,4.15
2023-02-19T21:46:48.606Z,6.78
2023-02-19T21:49:16.160Z,8.80
2023-02-19T21:51:44.825Z,8.95
2023-02-19T21:54:15.429Z,4.68
2023-02-19T21:56:43.109Z,5.90
2023-02-19T21:59:14.696Z,11.25
2023-02-19T22:01:43.341Z,8.93
2023-02-19T22:04:13.118Z,7.57
2023-02-19T22:06:41.006Z,10.52
2023-02-19T22:09:08.851Z,8.30
2023-02-19T22:11:36.342Z,8.90
2023-02-19T22:14:03.917Z,6.15
2023-02-19T22:16:32.971Z,7.00
2023-02-19T22:19:00.948Z,6.13
2023-02-19T22:21:32.335Z,7.38
2023-02-19T22:23:59.921Z,5.57
2023-02-19T22:26:28.416Z,3.58
2023-02-19T22:28:56.085Z,5.28
2023-02-19T22:31:24.947Z,8.55
2023-02-19T22:33:54.533Z,9.23
2023-02-19T22:36:23.226Z,6.78
2023-02-19T22:38:51.085Z,5.97
2023-02-19T22:41:19.088Z,5.18
2023-02-19T22:43:46.862Z,7.05
2023-02-19T22:46:15.482Z,10.63
2023-02-19T22:48:43.301Z,5.70
2023-02-19T22:51:13.440Z,6.32
2023-02-19T22:53:44.597Z,9.85
2023-02-19T22:56:12.461Z,9.02
2023-02-19T22:58:40.265Z,5.13
2023-02-19T23:01:07.880Z,11.10
2023-02-19T23:03:35.414Z,9.38
2023-02-19T23:06:04.074Z,6.88
2023-02-19T23:08:32.996Z,7.88
2023-02-19T23:11:00.500Z,7.75
2023-02-19T23:13:27.986Z,12.60
2023-02-19T23:15:55.521Z,7.57
2023-02-19T23:18:24.033Z,9.35
2023-02-19T23:20:51.527Z,7.60
2023-02-19T23:23:19.009Z,4.32
2023-02-19T23:25:47.797Z,7.68
2023-02-19T23:28:15.517Z,9.18
2023-02-19T23:30:43.107Z,7.75
2023-02-19T23:33:10.671Z,6.22
2023-02-19T23:35:38.194Z,9.73
2023-02-19T23:38:05.812Z,6.35
2023-02-19T23:40:33.328Z,6.32
2023-02-19T23:43:02.212Z,4.38
2023-02-19T23:45:29.901Z,4.53
2023-02-19T23:47:57.358Z,5.85
2023-02-19T23:50:24.810Z,7.78
2023-02-19T23:52:52.283Z,8.23
2023-02-19T23:55:19.782Z,7.32
2023-02-19T23:57:47.348Z,9.32
